sensor_id;sensor_type;location;lat;lon;timestamp;pressure;altitude;pressure_sealevel;temperature;humidity
55490;BME280;44029;52.956;4.772;2022-07-23T00:00:03;102051.22;;;17.55;100.00
55490;BME280;44029;52.956;4.772;2022-07-23T00:02:29;102055.09;;;17.54;100.00
55490;BME280;44029;52.956;4.772;2022-07-23T00:04:54;102060.09;;;17.57;100.00
55490;BME280;44029;52.956;4.772;2022-07-23T00:07:19;102054.34;;;17.64;100.00
55490;BME280;44029;52.956;4.772;2022-07-23T00:09:45;102051.59;;;17.69;100.00
55490;BME280;44029;52.956;4.772;2022-07-23T00:12:10;102054.06;;;17.71;100.00
55490;BME280;44029;52.956;4.772;2022-07-23T00:14:35;102053.53;;;17.74;100.00
55490;BME280;44029;52.956;4.772;2022-07-23T00:17:01;102045.47;;;17.67;100.00
55490;BME280;44029;52.956;4.772;2022-07-23T00:19:26;102040.22;;;17.66;100.00
55490;BME280;44029;52.956;4.772;2022-07-23T00:21:51;102035.44;;;17.56;100.00
55490;BME280;44029;52.956;4.772;2022-07-23T00:24:17;102032.09;;;17.54;100.00
55490;BME280;44029;52.956;4.772;2022-07-23T00:26:42;102029.59;;;17.52;100.00
55490;BME280;44029;52.956;4.772;2022-07-23T00:29:07;102036.25;;;17.51;100.00
55490;BME280;44029;52.956;4.772;2022-07-23T00:31:33;102035.94;;;17.48;100.00
55490;BME280;44029;52.956;4.772;2022-07-23T00:33:58;102028.47;;;17.48;100.00
55490;BME280;44029;52.956;4.772;2022-07-23T00:36:26;102030.38;;;17.43;100.00
55490;BME280;44029;52.956;4.772;2022-07-23T00:38:52;102027.34;;;17.44;100.00
55490;BME280;44029;52.956;4.772;2022-07-23T00:41:18;102023.72;;;17.44;100.00
55490;BME280;44029;52.956;4.772;2022-07-23T00:43:44;102023.72;;;17.44;100.00
55490;BME280;44029;52.956;4.772;2022-07-23T00:46:09;102033.41;;;17.41;100.00
55490;BME280;44029;52.956;4.772;2022-07-23T00:48:34;102022.88;;;17.43;100.00
55490;BME280;44029;52.956;4.772;2022-07-23T00:51:00;102024.25;;;17.41;100.00
55490;BME280;44029;52.956;4.772;2022-07-23T00:53:25;102028.91;;;17.30;100.00
55490;BME280;44029;52.956;4.772;2022-07-23T00:55:51;102032.78;;;17.34;100.00
55490;BME280;44029;52.956;4.772;2022-07-23T00:58:16;102035.84;;;17.32;100.00
55490;BME280;44029;52.956;4.772;2022-07-23T01:00:42;102026.13;;;17.30;100.00
55490;BME280;44029;52.956;4.772;2022-07-23T01:03:08;102020.84;;;17.28;100.00
55490;BME280;44029;52.956;4.772;2022-07-23T01:05:33;102025.59;;;17.33;100.00
55490;BME280;44029;52.956;4.772;2022-07-23T01:07:58;102019.19;;;17.27;100.00
55490;BME280;44029;52.956;4.772;2022-07-23T01:10:25;102020.06;;;17.33;100.00
55490;BME280;44029;52.956;4.772;2022-07-23T01:13:06;102015.78;;;17.15;100.00
55490;BME280;44029;52.956;4.772;2022-07-23T01:15:35;102023.72;;;17.06;100.00
55490;BME280;44029;52.956;4.772;2022-07-23T01:18:01;102019.88;;;17.07;100.00
55490;BME280;44029;52.956;4.772;2022-07-23T01:20:27;102011.88;;;17.11;100.00
55490;BME280;44029;52.956;4.772;2022-07-23T01:22:53;102011.06;;;17.15;100.00
55490;BME280;44029;52.956;4.772;2022-07-23T01:25:19;102007.16;;;17.11;100.00
55490;BME280;44029;52.956;4.772;2022-07-23T01:27:45;102004.34;;;17.06;100.00
55490;BME280;44029;52.956;4.772;2022-07-23T01:30:11;102020.28;;;16.89;100.00
55490;BME280;44029;52.956;4.772;2022-07-23T01:32:37;102011.47;;;16.97;100.00
55490;BME280;44029;52.956;4.772;2022-07-23T01:35:04;102007.09;;;17.01;100.00
55490;BME280;44029;52.956;4.772;2022-07-23T01:37:30;102010.13;;;16.99;100.00
55490;BME280;44029;52.956;4.772;2022-07-23T01:39:55;102006.56;;;17.04;100.00
55490;BME280;44029;52.956;4.772;2022-07-23T01:42:20;102009.41;;;17.14;100.00
55490;BME280;44029;52.956;4.772;2022-07-23T01:44:46;102010.75;;;17.12;100.00
55490;BME280;44029;52.956;4.772;2022-07-23T01:47:11;102011.41;;;16.87;100.00
55490;BME280;44029;52.956;4.772;2022-07-23T01:49:37;102018.19;;;16.74;100.00
55490;BME280;44029;52.956;4.772;2022-07-23T01:52:02;102012.09;;;16.72;100.00
55490;BME280;44029;52.956;4.772;2022-07-23T01:54:33;102013.97;;;16.66;100.00
55490;BME280;44029;52.956;4.772;2022-07-23T01:56:59;102017.44;;;16.51;100.00
55490;BME280;44029;52.956;4.772;2022-07-23T01:59:25;102016.88;;;16.54;100.00
55490;BME280;44029;52.956;4.772;2022-07-23T02:01:51;102023.66;;;16.41;100.00
55490;BME280;44029;52.956;4.772;2022-07-23T02:04:17;102019.34;;;16.23;100.00
55490;BME280;44029;52.956;4.772;2022-07-23T02:06:43;102022.31;;;16.17;100.00
55490;BME280;44029;52.956;4.772;2022-07-23T02:09:08;102019.03;;;16.20;100.00
55490;BME280;44029;52.956;4.772;2022-07-23T02:11:33;102013.22;;;16.49;100.00
55490;BME280;44029;52.956;4.772;2022-07-23T02:13:59;102006.38;;;16.56;100.00
55490;BME280;44029;52.956;4.772;2022-07-23T02:16:24;102004.03;;;16.70;100.00
55490;BME280;44029;52.956;4.772;2022-07-23T02:18:50;102000.78;;;16.78;100.00
55490;BME280;44029;52.956;4.772;2022-07-23T02:21:15;102001.97;;;16.83;100.00
55490;BME280;44029;52.956;4.772;2022-07-23T02:23:40;102001.22;;;16.92;100.00
55490;BME280;44029;52.956;4.772;2022-07-23T02:26:06;101992.69;;;16.99;100.00
55490;BME280;44029;52.956;4.772;2022-07-23T02:28:31;101994.13;;;17.07;100.00
55490;BME280;44029;52.956;4.772;2022-07-23T02:30:56;101991.94;;;17.09;100.00
55490;BME280;44029;52.956;4.772;2022-07-23T02:33:22;101996.91;;;17.07;100.00
55490;BME280;44029;52.956;4.772;2022-07-23T02:35:47;102010.41;;;16.98;100.00
55490;BME280;44029;52.956;4.772;2022-07-23T02:38:12;102008.41;;;16.93;100.00
55490;BME280;44029;52.956;4.772;2022-07-23T02:40:38;102010.75;;;17.07;100.00
55490;BME280;44029;52.956;4.772;2022-07-23T02:43:03;102016.81;;;17.04;100.00
55490;BME280;44029;52.956;4.772;2022-07-23T02:45:29;102010.75;;;17.07;100.00
55490;BME280;44029;52.956;4.772;2022-07-23T02:47:54;102008.25;;;17.05;100.00
55490;BME280;44029;52.956;4.772;2022-07-23T02:50:19;102002.19;;;17.08;100.00
55490;BME280;44029;52.956;4.772;2022-07-23T02:52:45;102014.91;;;17.09;100.00
55490;BME280;44029;52.956;4.772;2022-07-23T02:55:10;102011.88;;;17.11;100.00
55490;BME280;44029;52.956;4.772;2022-07-23T02:57:36;102022.03;;;17.00;100.00
55490;BME280;44029;52.956;4.772;2022-07-23T03:00:03;102033.38;;;16.98;100.00
55490;BME280;44029;52.956;4.772;2022-07-23T03:02:29;102028.28;;;16.85;100.00
55490;BME280;44029;52.956;4.772;2022-07-23T03:04:54;102035.84;;;16.68;100.00
55490;BME280;44029;52.956;4.772;2022-07-23T03:07:20;102037.75;;;16.67;100.00
55490;BME280;44029;52.956;4.772;2022-07-23T03:09:45;102053.16;;;16.58;100.00
55490;BME280;44029;52.956;4.772;2022-07-23T03:12:11;102041.47;;;16.51;100.00
55490;BME280;44029;52.956;4.772;2022-07-23T03:14:36;102040.41;;;16.30;100.00
55490;BME280;44029;52.956;4.772;2022-07-23T03:17:01;102040.22;;;16.36;100.00
55490;BME280;44029;52.956;4.772;2022-07-23T03:19:26;102055.22;;;16.18;100.00
55490;BME280;44029;52.956;4.772;2022-07-23T03:21:52;102061.47;;;16.09;100.00
55490;BME280;44029;52.956;4.772;2022-07-23T03:24:17;102057.59;;;16.10;100.00
55490;BME280;44029;52.956;4.772;2022-07-23T03:26:43;102066.94;;;16.03;100.00
55490;BME280;44029;52.956;4.772;2022-07-23T03:29:09;102068.53;;;15.99;100.00
55490;BME280;44029;52.956;4.772;2022-07-23T03:31:35;102063.00;;;15.99;100.00
55490;BME280;44029;52.956;4.772;2022-07-23T03:34:00;102063.84;;;16.00;100.00
55490;BME280;44029;52.956;4.772;2022-07-23T03:36:25;102064.31;;;15.92;100.00
55490;BME280;44029;52.956;4.772;2022-07-23T03:38:51;102060.56;;;16.03;100.00
55490;BME280;44029;52.956;4.772;2022-07-23T03:41:17;102063.06;;;16.04;100.00
55490;BME280;44029;52.956;4.772;2022-07-23T03:43:43;102066.78;;;16.15;100.00
55490;BME280;44029;52.956;4.772;2022-07-23T03:46:08;102059.28;;;16.11;100.00
55490;BME280;44029;52.956;4.772;2022-07-23T03:48:34;102061.25;;;16.37;100.00
55490;BME280;44029;52.956;4.772;2022-07-23T03:51:00;102052.91;;;16.59;100.00
55490;BME280;44029;52.956;4.772;2022-07-23T03:53:25;102050.41;;;16.85;100.00
55490;BME280;44029;52.956;4.772;2022-07-23T03:55:50;102037.00;;;16.99;100.00
55490;BME280;44029;52.956;4.772;2022-07-23T03:58:15;102029.88;;;17.13;100.00
55490;BME280;44029;52.956;4.772;2022-07-23T04:00:41;102031.34;;;17.26;100.00
55490;BME280;44029;52.956;4.772;2022-07-23T04:03:06;102016.69;;;17.26;100.00
55490;BME280;44029;52.956;4.772;2022-07-23T04:05:31;102030.75;;;17.19;100.00
55490;BME280;44029;52.956;4.772;2022-07-23T04:07:57;102022.69;;;17.17;100.00
55490;BME280;44029;52.956;4.772;2022-07-23T04:10:22;102030.84;;;17.29;100.00
55490;BME280;44029;52.956;4.772;2022-07-23T04:12:47;102028.59;;;17.26;100.00
55490;BME280;44029;52.956;4.772;2022-07-23T04:15:13;102017.53;;;17.79;100.00
55490;BME280;44029;52.956;4.772;2022-07-23T04:17:38;102002.81;;;19.24;100.00
55490;BME280;44029;52.956;4.772;2022-07-23T04:20:03;101987.50;;;20.57;100.00
55490;BME280;44029;52.956;4.772;2022-07-23T04:22:29;101987.91;;;20.79;100.00
55490;BME280;44029;52.956;4.772;2022-07-23T04:24:54;101982.69;;;21.79;100.00
55490;BME280;44029;52.956;4.772;2022-07-23T04:27:20;101992.06;;;21.65;100.00
55490;BME280;44029;52.956;4.772;2022-07-23T04:29:45;101978.31;;;22.35;100.00
55490;BME280;44029;52.956;4.772;2022-07-23T04:32:10;101980.19;;;22.59;100.00
55490;BME280;44029;52.956;4.772;2022-07-23T04:34:36;101984.09;;;22.20;100.00
55490;BME280;44029;52.956;4.772;2022-07-23T04:37:01;101979.94;;;22.55;100.00
55490;BME280;44029;52.956;4.772;2022-07-23T04:39:26;101974.81;;;22.25;100.00
55490;BME280;44029;52.956;4.772;2022-07-23T04:41:51;101979.91;;;21.79;100.00
55490;BME280;44029;52.956;4.772;2022-07-23T04:44:17;101989.41;;;21.01;100.00
55490;BME280;44029;52.956;4.772;2022-07-23T04:46:42;101986.13;;;20.54;100.00
55490;BME280;44029;52.956;4.772;2022-07-23T04:49:07;101990.50;;;20.26;100.00
55490;BME280;44029;52.956;4.772;2022-07-23T04:51:33;101992.03;;;20.82;100.00
55490;BME280;44029;52.956;4.772;2022-07-23T04:53:58;101996.44;;;20.54;100.00
55490;BME280;44029;52.956;4.772;2022-07-23T04:56:23;101997.97;;;20.75;100.00
55490;BME280;44029;52.956;4.772;2022-07-23T04:58:49;101994.72;;;20.58;100.00
55490;BME280;44029;52.956;4.772;2022-07-23T05:01:14;101994.84;;;21.11;100.00
55490;BME280;44029;52.956;4.772;2022-07-23T05:03:39;101998.00;;;20.70;100.00
55490;BME280;44029;52.956;4.772;2022-07-23T05:06:05;102000.19;;;20.34;100.00
55490;BME280;44029;52.956;4.772;2022-07-23T05:08:30;101995.75;;;20.33;100.00
55490;BME280;44029;52.956;4.772;2022-07-23T05:10:55;101993.97;;;20.47;100.00
55490;BME280;44029;52.956;4.772;2022-07-23T05:13:20;101997.63;;;20.42;100.00
55490;BME280;44029;52.956;4.772;2022-07-23T05:15:46;101995.53;;;20.19;100.00
55490;BME280;44029;52.956;4.772;2022-07-23T05:18:11;101991.50;;;19.96;100.00
55490;BME280;44029;52.956;4.772;2022-07-23T05:20:37;101997.47;;;19.58;100.00
55490;BME280;44029;52.956;4.772;2022-07-23T05:23:03;102001.59;;;19.66;100.00
55490;BME280;44029;52.956;4.772;2022-07-23T05:25:28;102009.16;;;19.55;100.00
55490;BME280;44029;52.956;4.772;2022-07-23T05:27:53;102008.81;;;19.82;100.00
55490;BME280;44029;52.956;4.772;2022-07-23T05:30:19;102002.28;;;20.02;100.00
55490;BME280;44029;52.956;4.772;2022-07-23T05:32:44;101992.31;;;20.01;100.00
55490;BME280;44029;52.956;4.772;2022-07-23T05:35:10;101991.13;;;20.13;100.00
55490;BME280;44029;52.956;4.772;2022-07-23T05:37:36;101988.19;;;19.88;100.00
55490;BME280;44029;52.956;4.772;2022-07-23T05:40:06;102009.34;;;19.84;100.00
55490;BME280;44029;52.956;4.772;2022-07-23T05:42:38;102006.97;;;19.37;100.00
55490;BME280;44029;52.956;4.772;2022-07-23T05:45:05;102014.44;;;19.57;100.00
55490;BME280;44029;52.956;4.772;2022-07-23T05:47:51;102006.44;;;20.55;100.00
55490;BME280;44029;52.956;4.772;2022-07-23T05:50:16;102002.09;;;20.83;100.00
55490;BME280;44029;52.956;4.772;2022-07-23T05:52:43;102011.66;;;21.30;100.00
55490;BME280;44029;52.956;4.772;2022-07-23T05:55:09;101996.03;;;22.45;100.00
55490;BME280;44029;52.956;4.772;2022-07-23T05:57:35;101993.94;;;23.21;100.00
55490;BME280;44029;52.956;4.772;2022-07-23T06:00:02;102000.50;;;23.72;100.00
55490;BME280;44029;52.956;4.772;2022-07-23T06:02:27;102001.81;;;23.74;100.00
55490;BME280;44029;52.956;4.772;2022-07-23T06:04:53;102006.16;;;22.92;100.00
55490;BME280;44029;52.956;4.772;2022-07-23T06:07:18;102001.78;;;21.91;100.00
55490;BME280;44029;52.956;4.772;2022-07-23T06:09:43;102012.25;;;21.80;100.00
55490;BME280;44029;52.956;4.772;2022-07-23T06:12:09;102016.69;;;22.25;100.00
55490;BME280;44029;52.956;4.772;2022-07-23T06:14:34;102001.53;;;22.50;100.00
55490;BME280;44029;52.956;4.772;2022-07-23T06:16:59;101996.56;;;23.87;100.00
55490;BME280;44029;52.956;4.772;2022-07-23T06:19:25;101995.25;;;24.80;100.00
55490;BME280;44029;52.956;4.772;2022-07-23T06:21:51;102002.53;;;24.58;100.00
55490;BME280;44029;52.956;4.772;2022-07-23T06:24:16;101999.16;;;24.70;100.00
55490;BME280;44029;52.956;4.772;2022-07-23T06:26:42;102000.00;;;23.56;100.00
55490;BME280;44029;52.956;4.772;2022-07-23T06:29:07;102003.16;;;23.22;100.00
55490;BME280;44029;52.956;4.772;2022-07-23T06:31:33;102003.28;;;23.30;100.00
55490;BME280;44029;52.956;4.772;2022-07-23T06:33:58;101994.16;;;24.08;100.00
55490;BME280;44029;52.956;4.772;2022-07-23T06:36:23;101992.78;;;24.19;100.00
55490;BME280;44029;52.956;4.772;2022-07-23T06:38:49;102012.94;;;23.66;100.00
55490;BME280;44029;52.956;4.772;2022-07-23T06:41:14;102024.81;;;21.78;100.00
55490;BME280;44029;52.956;4.772;2022-07-23T06:43:39;102019.88;;;22.75;100.00
55490;BME280;44029;52.956;4.772;2022-07-23T06:46:05;102028.69;;;22.25;100.00
55490;BME280;44029;52.956;4.772;2022-07-23T06:48:30;102023.69;;;22.03;100.00
55490;BME280;44029;52.956;4.772;2022-07-23T06:50:55;102021.91;;;22.50;100.00
55490;BME280;44029;52.956;4.772;2022-07-23T06:53:21;102019.53;;;23.28;100.00
55490;BME280;44029;52.956;4.772;2022-07-23T06:55:46;102022.91;;;23.86;100.00
55490;BME280;44029;52.956;4.772;2022-07-23T06:58:12;102016.31;;;23.21;100.00
55490;BME280;44029;52.956;4.772;2022-07-23T07:00:39;102019.97;;;24.55;100.00
55490;BME280;44029;52.956;4.772;2022-07-23T07:03:04;102028.72;;;24.99;100.00
55490;BME280;44029;52.956;4.772;2022-07-23T07:05:29;102036.53;;;22.80;100.00
55490;BME280;44029;52.956;4.772;2022-07-23T07:07:55;102023.16;;;24.85;100.00
55490;BME280;44029;52.956;4.772;2022-07-23T07:10:21;102032.91;;;25.73;100.00
55490;BME280;44029;52.956;4.772;2022-07-23T07:12:46;102040.03;;;25.16;100.00
55490;BME280;44029;52.956;4.772;2022-07-23T07:15:12;102044.97;;;23.87;100.00
55490;BME280;44029;52.956;4.772;2022-07-23T07:17:37;102055.22;;;22.66;100.00
55490;BME280;44029;52.956;4.772;2022-07-23T07:20:03;102046.59;;;22.81;100.00
55490;BME280;44029;52.956;4.772;2022-07-23T07:22:28;102042.06;;;24.06;100.00
55490;BME280;44029;52.956;4.772;2022-07-23T07:24:54;102038.31;;;24.25;100.00
55490;BME280;44029;52.956;4.772;2022-07-23T07:27:19;102036.47;;;24.06;100.00
55490;BME280;44029;52.956;4.772;2022-07-23T07:29:45;102050.13;;;24.72;100.00
55490;BME280;44029;52.956;4.772;2022-07-23T07:32:10;102038.50;;;24.65;100.00
55490;BME280;44029;52.956;4.772;2022-07-23T07:34:35;102058.34;;;23.16;100.00
55490;BME280;44029;52.956;4.772;2022-07-23T07:37:01;102067.81;;;22.44;100.00
55490;BME280;44029;52.956;4.772;2022-07-23T07:39:26;102070.16;;;21.89;100.00
55490;BME280;44029;52.956;4.772;2022-07-23T07:41:51;102075.06;;;21.49;100.00
55490;BME280;44029;52.956;4.772;2022-07-23T07:44:17;102076.41;;;21.80;100.00
55490;BME280;44029;52.956;4.772;2022-07-23T07:46:42;102076.94;;;22.07;100.00
55490;BME280;44029;52.956;4.772;2022-07-23T07:49:07;102068.66;;;22.20;100.00
55490;BME280;44029;52.956;4.772;2022-07-23T07:51:33;102073.00;;;22.08;100.00
55490;BME280;44029;52.956;4.772;2022-07-23T07:53:59;102082.47;;;21.88;100.00
55490;BME280;44029;52.956;4.772;2022-07-23T07:56:24;102085.13;;;21.98;100.00
55490;BME280;44029;52.956;4.772;2022-07-23T07:58:49;102075.06;;;22.64;100.00
55490;BME280;44029;52.956;4.772;2022-07-23T08:01:15;102078.84;;;24.27;100.00
55490;BME280;44029;52.956;4.772;2022-07-23T08:03:40;102080.31;;;24.25;100.00
55490;BME280;44029;52.956;4.772;2022-07-23T08:06:06;102083.41;;;24.09;100.00
55490;BME280;44029;52.956;4.772;2022-07-23T08:08:31;102079.28;;;24.71;100.00
55490;BME280;44029;52.956;4.772;2022-07-23T08:10:56;102084.13;;;24.15;100.00
55490;BME280;44029;52.956;4.772;2022-07-23T08:13:22;102084.81;;;24.48;100.00
55490;BME280;44029;52.956;4.772;2022-07-23T08:15:47;102079.34;;;23.60;100.00
55490;BME280;44029;52.956;4.772;2022-07-23T08:18:13;102078.34;;;25.21;100.00
55490;BME280;44029;52.956;4.772;2022-07-23T08:20:38;102085.50;;;25.58;100.00
55490;BME280;44029;52.956;4.772;2022-07-23T08:23:06;102073.31;;;25.09;100.00
55490;BME280;44029;52.956;4.772;2022-07-23T08:25:34;102076.72;;;24.61;100.00
55490;BME280;44029;52.956;4.772;2022-07-23T08:28:01;102070.44;;;25.45;100.00
55490;BME280;44029;52.956;4.772;2022-07-23T08:30:28;102073.16;;;24.05;100.00
55490;BME280;44029;52.956;4.772;2022-07-23T08:35:24;102078.72;;;23.77;100.00
55490;BME280;44029;52.956;4.772;2022-07-23T08:37:49;102083.88;;;23.42;100.00
55490;BME280;44029;52.956;4.772;2022-07-23T08:40:15;102077.81;;;23.82;100.00
55490;BME280;44029;52.956;4.772;2022-07-23T08:42:40;102078.97;;;24.08;100.00
55490;BME280;44029;52.956;4.772;2022-07-23T08:45:07;102078.03;;;23.85;100.00
55490;BME280;44029;52.956;4.772;2022-07-23T08:47:34;102086.59;;;23.61;100.00
55490;BME280;44029;52.956;4.772;2022-07-23T08:50:01;102092.50;;;24.57;100.00
55490;BME280;44029;52.956;4.772;2022-07-23T08:52:26;102088.91;;;24.15;100.00
55490;BME280;44029;52.956;4.772;2022-07-23T08:54:52;102090.06;;;24.14;100.00
55490;BME280;44029;52.956;4.772;2022-07-23T08:57:18;102085.28;;;24.00;100.00
55490;BME280;44029;52.956;4.772;2022-07-23T08:59:44;102088.59;;;24.02;100.00
55490;BME280;44029;52.956;4.772;2022-07-23T09:02:09;102095.44;;;23.35;100.00
55490;BME280;44029;52.956;4.772;2022-07-23T09:04:34;102101.28;;;23.53;100.00
55490;BME280;44029;52.956;4.772;2022-07-23T09:07:01;102095.66;;;22.68;100.00
55490;BME280;44029;52.956;4.772;2022-07-23T09:09:27;102092.59;;;23.68;100.00
55490;BME280;44029;52.956;4.772;2022-07-23T09:12:08;102090.34;;;24.40;100.00
55490;BME280;44029;52.956;4.772;2022-07-23T09:14:38;102072.44;;;24.63;100.00
55490;BME280;44029;52.956;4.772;2022-07-23T09:17:15;102089.69;;;24.43;100.00
55490;BME280;44029;52.956;4.772;2022-07-23T09:19:41;102086.13;;;25.24;100.00
55490;BME280;44029;52.956;4.772;2022-07-23T09:22:26;102092.34;;;24.98;100.00
55490;BME280;44029;52.956;4.772;2022-07-23T09:25:17;102074.78;;;24.34;100.00
55490;BME280;44029;52.956;4.772;2022-07-23T09:27:47;102080.94;;;24.72;100.00
55490;BME280;44029;52.956;4.772;2022-07-23T09:30:14;102083.84;;;23.89;100.00
55490;BME280;44029;52.956;4.772;2022-07-23T09:32:40;102084.72;;;23.70;100.00
55490;BME280;44029;52.956;4.772;2022-07-23T09:35:06;102091.53;;;23.50;100.00
55490;BME280;44029;52.956;4.772;2022-07-23T09:37:32;102096.50;;;23.40;100.00
55490;BME280;44029;52.956;4.772;2022-07-23T09:40:08;102096.13;;;23.74;100.00
55490;BME280;44029;52.956;4.772;2022-07-23T09:42:34;102095.03;;;24.30;100.00
55490;BME280;44029;52.956;4.772;2022-07-23T09:45:01;102099.25;;;24.28;100.00
55490;BME280;44029;52.956;4.772;2022-07-23T09:47:29;102098.56;;;23.81;100.00
55490;BME280;44029;52.956;4.772;2022-07-23T09:50:06;102091.66;;;23.59;100.00
55490;BME280;44029;52.956;4.772;2022-07-23T09:52:52;102094.75;;;24.04;100.00
55490;BME280;44029;52.956;4.772;2022-07-23T09:55:19;102092.63;;;24.38;100.00
55490;BME280;44029;52.956;4.772;2022-07-23T09:57:45;102087.22;;;24.55;100.00
55490;BME280;44029;52.956;4.772;2022-07-23T10:00:15;102091.97;;;24.41;100.00
55490;BME280;44029;52.956;4.772;2022-07-23T10:02:40;102099.03;;;24.66;100.00
55490;BME280;44029;52.956;4.772;2022-07-23T10:05:06;102101.22;;;24.55;100.00
55490;BME280;44029;52.956;4.772;2022-07-23T10:07:34;102102.66;;;24.89;100.00
55490;BME280;44029;52.956;4.772;2022-07-23T10:10:02;102105.06;;;24.31;100.00
55490;BME280;44029;52.956;4.772;2022-07-23T10:12:28;102102.72;;;24.11;100.00
55490;BME280;44029;52.956;4.772;2022-07-23T10:14:53;102108.63;;;24.09;100.00
55490;BME280;44029;52.956;4.772;2022-07-23T10:17:18;102100.19;;;24.37;100.00
55490;BME280;44029;52.956;4.772;2022-07-23T10:19:44;102100.13;;;24.79;100.00
55490;BME280;44029;52.956;4.772;2022-07-23T10:22:13;102100.81;;;24.62;100.00
55490;BME280;44029;52.956;4.772;2022-07-23T10:27:54;102102.56;;;24.58;100.00
55490;BME280;44029;52.956;4.772;2022-07-23T10:30:46;102107.75;;;24.64;100.00
55490;BME280;44029;52.956;4.772;2022-07-23T10:33:44;102115.25;;;24.55;100.00
55490;BME280;44029;52.956;4.772;2022-07-23T10:36:31;102100.03;;;24.70;100.00
55490;BME280;44029;52.956;4.772;2022-07-23T10:39:05;102101.31;;;24.64;100.00
55490;BME280;44029;52.956;4.772;2022-07-23T10:41:38;102101.75;;;24.57;100.00
55490;BME280;44029;52.956;4.772;2022-07-23T10:44:14;102101.94;;;24.47;100.00
55490;BME280;44029;52.956;4.772;2022-07-23T10:47:00;102099.22;;;24.69;100.00
55490;BME280;44029;52.956;4.772;2022-07-23T10:49:35;102106.63;;;24.88;100.00
55490;BME280;44029;52.956;4.772;2022-07-23T10:52:21;102106.44;;;25.07;100.00
55490;BME280;44029;52.956;4.772;2022-07-23T10:57:13;102097.78;;;25.17;100.00
55490;BME280;44029;52.956;4.772;2022-07-23T11:02:47;102105.66;;;24.93;100.00
55490;BME280;44029;52.956;4.772;2022-07-23T11:05:17;102106.59;;;25.24;100.00
55490;BME280;44029;52.956;4.772;2022-07-23T11:31:59;102095.63;;;24.92;99.55
55490;BME280;44029;52.956;4.772;2022-07-23T11:37:04;102095.28;;;24.43;89.50
55490;BME280;44029;52.956;4.772;2022-07-23T11:39:30;102084.13;;;24.79;90.40
55490;BME280;44029;52.956;4.772;2022-07-23T11:41:57;102090.50;;;24.71;87.17
55490;BME280;44029;52.956;4.772;2022-07-23T11:44:37;102099.03;;;25.11;85.95
55490;BME280;44029;52.956;4.772;2022-07-23T11:47:08;102095.13;;;25.12;85.25
55490;BME280;44029;52.956;4.772;2022-07-23T11:49:35;102084.94;;;24.57;86.19
55490;BME280;44029;52.956;4.772;2022-07-23T11:52:07;102089.13;;;24.82;93.22
55490;BME280;44029;52.956;4.772;2022-07-23T11:54:34;102083.53;;;25.27;94.27
55490;BME280;44029;52.956;4.772;2022-07-23T11:57:00;102083.00;;;25.25;85.74
55490;BME280;44029;52.956;4.772;2022-07-23T11:59:26;102086.25;;;25.41;84.16
55490;BME280;44029;52.956;4.772;2022-07-23T12:02:10;102078.91;;;25.32;83.24
55490;BME280;44029;52.956;4.772;2022-07-23T12:04:48;102079.16;;;25.44;88.60
55490;BME280;44029;52.956;4.772;2022-07-23T12:07:31;102072.94;;;25.24;86.18
55490;BME280;44029;52.956;4.772;2022-07-23T12:10:09;102077.41;;;25.25;88.33
55490;BME280;44029;52.956;4.772;2022-07-23T12:12:43;102069.88;;;25.35;92.32
55490;BME280;44029;52.956;4.772;2022-07-23T12:15:11;102064.38;;;25.07;89.96
55490;BME280;44029;52.956;4.772;2022-07-23T12:17:38;102068.41;;;24.92;90.92
55490;BME280;44029;52.956;4.772;2022-07-23T12:20:06;102065.47;;;25.20;90.60
55490;BME280;44029;52.956;4.772;2022-07-23T12:22:41;102067.69;;;25.32;90.68
55490;BME280;44029;52.956;4.772;2022-07-23T12:25:10;102057.97;;;25.06;88.06
55490;BME280;44029;52.956;4.772;2022-07-23T12:27:36;102068.16;;;25.25;86.53
55490;BME280;44029;52.956;4.772;2022-07-23T12:30:21;102061.66;;;25.16;85.43
55490;BME280;44029;52.956;4.772;2022-07-23T12:32:48;102065.56;;;25.29;87.24
55490;BME280;44029;52.956;4.772;2022-07-23T12:35:15;102061.19;;;25.22;87.58
55490;BME280;44029;52.956;4.772;2022-07-23T12:37:42;102056.94;;;25.25;88.39
55490;BME280;44029;52.956;4.772;2022-07-23T12:40:31;102052.91;;;25.17;82.43
55490;BME280;44029;52.956;4.772;2022-07-23T12:45:28;102056.88;;;24.94;82.90
55490;BME280;44029;52.956;4.772;2022-07-23T12:48:04;102054.50;;;25.09;83.06
55490;BME280;44029;52.956;4.772;2022-07-23T12:50:49;102059.16;;;25.14;84.88
55490;BME280;44029;52.956;4.772;2022-07-23T12:53:29;102059.22;;;25.00;86.18
55490;BME280;44029;52.956;4.772;2022-07-23T12:56:00;102067.13;;;24.98;91.40
55490;BME280;44029;52.956;4.772;2022-07-23T12:58:39;102076.75;;;24.83;91.83
55490;BME280;44029;52.956;4.772;2022-07-23T13:01:05;102065.59;;;24.69;95.31
55490;BME280;44029;52.956;4.772;2022-07-23T13:03:40;102073.00;;;24.65;96.93
55490;BME280;44029;52.956;4.772;2022-07-23T13:06:10;102070.50;;;24.64;93.14
55490;BME280;44029;52.956;4.772;2022-07-23T13:08:38;102076.44;;;24.35;100.00
55490;BME280;44029;52.956;4.772;2022-07-23T13:11:05;102064.03;;;24.27;100.00
55490;BME280;44029;52.956;4.772;2022-07-23T13:13:33;102075.50;;;24.39;100.00
55490;BME280;44029;52.956;4.772;2022-07-23T13:15:59;102075.19;;;24.55;100.00
55490;BME280;44029;52.956;4.772;2022-07-23T13:18:26;102077.56;;;24.34;100.00
55490;BME280;44029;52.956;4.772;2022-07-23T13:20:51;102071.44;;;24.45;100.00